Back to Top

Language: 

My Weather Underground Personal Weather Station Historical Data with Graphs...

Delerius Weather Station Historical Data
Daily Summary for December 16, 2017 Units:  Metric    English   Both
« Previous Day
Next Day »
Daily Weekly Monthly Yearly Custom
  High: Low: Average:
Temperature: 5.9 °C -2.3 °C 1.5 °C
Dew Point: 2.7 °C -3.1 °C -0.4 °C
Humidity: 95 % 78 % 87 %
Wind Speed: 14.5 km/h 0 km/h 6.6 km/h
Wind Gust: 29 km/h - -
Wind:- - WNW
Pressure: 1022.6 hPa 1011.4 hPa -
Precipitation: 0 mm    
Historical Graphs
 
 
Tabular Data for December 16, 2017
Time Temperature Dew Point Pressure Wind Wind Speed Wind Gust Humidity Rainfall Rate (Hourly) solar Conditions
00:03 1.4 °C -0.8 °C 1011.4 hPa WNW 11.3 km/h 17.7 km/h 85 % 0 mm 0 W/m2
00:04 1.4 °C -0.8 °C 1011.4 hPa WNW 9.7 km/h 16.1 km/h 85 % 0 mm 0 W/m2
00:09 1.4 °C -0.8 °C 1011.7 hPa WNW 11.3 km/h 19.3 km/h 85 % 0 mm 0 W/m2
00:19 1.4 °C -1 °C 1011.7 hPa WNW 8 km/h 12.9 km/h 84 % 0 mm 0 W/m2
00:23 1.4 °C -1 °C 1011.7 hPa WNW 9.7 km/h 12.9 km/h 84 % 0 mm 0 W/m2
00:25 1.4 °C -1 °C 1011.7 hPa WNW 9.7 km/h 14.5 km/h 84 % 0 mm 0 W/m2
00:30 1.4 °C -1 °C 1011.7 hPa WNW 11.3 km/h 16.1 km/h 84 % 0 mm 0 W/m2
00:31 1.4 °C -1 °C 1011.7 hPa WNW 9.7 km/h 16.1 km/h 84 % 0 mm 0 W/m2
00:33 1.3 °C -1.1 °C 1011.7 hPa WNW 9.7 km/h 14.5 km/h 84 % 0 mm 0 W/m2
00:38 1.3 °C -1.1 °C 1011.7 hPa WNW 9.7 km/h 12.9 km/h 84 % 0 mm 0 W/m2
00:39 1.3 °C -1.1 °C 1011.7 hPa WNW 8 km/h 11.3 km/h 84 % 0 mm 0 W/m2
00:40 1.3 °C -1.1 °C 1011.7 hPa WNW 8 km/h 11.3 km/h 84 % 0 mm 0 W/m2
00:45 1.3 °C -1.1 °C 1012.1 hPa WNW 9.7 km/h 14.5 km/h 84 % 0 mm 0 W/m2
00:47 1.3 °C -1.1 °C 1011.7 hPa NW 8 km/h 14.5 km/h 84 % 0 mm 0 W/m2
00:52 1.3 °C -1.1 °C 1012.1 hPa WNW 9.7 km/h 17.7 km/h 84 % 0 mm 0 W/m2
00:53 1.3 °C -1.1 °C 1012.1 hPa WNW 9.7 km/h 17.7 km/h 84 % 0 mm 0 W/m2
00:56 1.3 °C -1.1 °C 1012.1 hPa WNW 9.7 km/h 16.1 km/h 84 % 0 mm 0 W/m2
00:58 1.3 °C -1.1 °C 1012.1 hPa WNW 9.7 km/h 16.1 km/h 84 % 0 mm 0 W/m2
01:03 1.3 °C -1.1 °C 1012.1 hPa WNW 9.7 km/h 16.1 km/h 84 % 0 mm 0 W/m2
01:06 1.4 °C -1 °C 1012.1 hPa WNW 8 km/h 14.5 km/h 84 % 0 mm 0 W/m2
01:07 1.4 °C -1 °C 1012.1 hPa NW 8 km/h 14.5 km/h 84 % 0 mm 0 W/m2
01:12 1.4 °C -1 °C 1012.1 hPa NW 8 km/h 12.9 km/h 84 % 0 mm 0 W/m2
01:17 1.5 °C -1.1 °C 1012.4 hPa NW 9.7 km/h 14.5 km/h 83 % 0 mm 0 W/m2
01:22 1.5 °C -1.1 °C 1012.4 hPa NW 9.7 km/h 19.3 km/h 83 % 0 mm 0 W/m2
01:23 1.5 °C -1.1 °C 1012.4 hPa NW 8 km/h 12.9 km/h 83 % 0 mm 0 W/m2
01:28 1.5 °C -1.1 °C 1012.4 hPa NW 9.7 km/h 14.5 km/h 83 % 0 mm 0 W/m2
01:29 1.5 °C -1.1 °C 1012.4 hPa WNW 9.7 km/h 16.1 km/h 83 % 0 mm 0 W/m2
01:34 1.4 °C -1.2 °C 1012.4 hPa NW 9.7 km/h 16.1 km/h 83 % 0 mm 0 W/m2
01:35 1.4 °C -1.2 °C 1012.4 hPa NW 8 km/h 14.5 km/h 83 % 0 mm 0 W/m2
01:40 1.4 °C -1.2 °C 1012.4 hPa NW 9.7 km/h 17.7 km/h 83 % 0 mm 0 W/m2
01:41 1.4 °C -1.2 °C 1012.4 hPa NW 9.7 km/h 17.7 km/h 83 % 0 mm 0 W/m2
01:46 1.3 °C -1.3 °C 1012.4 hPa NW 8 km/h 12.9 km/h 83 % 0 mm 0 W/m2
01:51 1.3 °C -1.3 °C 1012.4 hPa WNW 8 km/h 12.9 km/h 83 % 0 mm 0 W/m2
01:57 1.3 °C -1.3 °C 1012.8 hPa NW 11.3 km/h 16.1 km/h 83 % 0 mm 0 W/m2
01:59 1.3 °C -1.3 °C 1012.8 hPa WNW 9.7 km/h 14.5 km/h 83 % 0 mm 0 W/m2
02:04 1.3 °C -1.3 °C 1012.8 hPa WNW 11.3 km/h 16.1 km/h 83 % 0 mm 0 W/m2
02:05 1.3 °C -1.3 °C 1012.8 hPa WNW 11.3 km/h 16.1 km/h 83 % 0 mm 0 W/m2
02:12 1.3 °C -1.3 °C 1012.8 hPa WNW 11.3 km/h 20.9 km/h 83 % 0 mm 0 W/m2
02:14 1.3 °C -1.3 °C 1012.8 hPa NW 12.9 km/h 22.5 km/h 83 % 0 mm 0 W/m2
02:18 1.4 °C -1.2 °C 1012.8 hPa WNW 12.9 km/h 19.3 km/h 83 % 0 mm 0 W/m2
02:23 1.4 °C -1.2 °C 1012.8 hPa WNW 12.9 km/h 19.3 km/h 83 % 0 mm 0 W/m2
02:24 1.4 °C -1.2 °C 1013.1 hPa WNW 11.3 km/h 19.3 km/h 83 % 0 mm 0 W/m2
02:28 1.4 °C -1.2 °C 1012.8 hPa WNW 14.5 km/h 19.3 km/h 83 % 0 mm 0 W/m2
02:31 1.4 °C -1.2 °C 1012.8 hPa WNW 11.3 km/h 17.7 km/h 83 % 0 mm 0 W/m2
02:32 1.4 °C -1.2 °C 1012.8 hPa WNW 11.3 km/h 14.5 km/h 83 % 0 mm 0 W/m2
02:37 1.4 °C -1.2 °C 1013.1 hPa WNW 11.3 km/h 17.7 km/h 83 % 0 mm 0 W/m2
02:38 1.4 °C -1.2 °C 1013.1 hPa WNW 9.7 km/h 17.7 km/h 83 % 0 mm 0 W/m2
02:40 1.4 °C -1.2 °C 1013.1 hPa NW 9.7 km/h 14.5 km/h 83 % 0 mm 0 W/m2
02:45 1.3 °C -1.3 °C 1013.1 hPa WNW 8 km/h 12.9 km/h 83 % 0 mm 0 W/m2
02:50 1.3 °C -1.3 °C 1013.1 hPa WNW 9.7 km/h 14.5 km/h 83 % 0 mm 0 W/m2
02:52 1.3 °C -1.3 °C 1013.1 hPa WNW 8 km/h 14.5 km/h 83 % 0 mm 0 W/m2
02:57 1.3 °C -1.3 °C 1013.1 hPa WNW 8 km/h 12.9 km/h 83 % 0 mm 0 W/m2
03:00 1.2 °C -1.4 °C 1013.1 hPa WNW 11.3 km/h 16.1 km/h 83 % 0 mm 0 W/m2
03:05 1.2 °C -1.2 °C 1013.4 hPa WNW 11.3 km/h 20.9 km/h 84 % 0 mm 0 W/m2
03:07 1.2 °C -1.2 °C 1013.1 hPa WNW 12.9 km/h 19.3 km/h 84 % 0 mm 0 W/m2
03:14 1.2 °C -1.2 °C 1013.4 hPa WNW 12.9 km/h 19.3 km/h 84 % 0 mm 0 W/m2
03:19 1.2 °C -1.2 °C 1013.4 hPa WNW 11.3 km/h 17.7 km/h 84 % 0 mm 0 W/m2
03:22 1.2 °C -1.2 °C 1013.4 hPa WNW 9.7 km/h 16.1 km/h 84 % 0 mm 0 W/m2
03:25 1.2 °C -1.2 °C 1013.4 hPa NW 9.7 km/h 16.1 km/h 84 % 0 mm 0 W/m2
03:30 1.1 °C -1.3 °C 1013.4 hPa WNW 11.3 km/h 17.7 km/h 84 % 0 mm 0 W/m2
03:35 1.1 °C -1.3 °C 1013.4 hPa WNW 9.7 km/h 14.5 km/h 84 % 0 mm 0 W/m2
03:39 1.1 °C -1.3 °C 1013.4 hPa WNW 8 km/h 17.7 km/h 84 % 0 mm 0 W/m2
03:44 1.1 °C -1.3 °C 1013.4 hPa WNW 9.7 km/h 16.1 km/h 84 % 0 mm 0 W/m2
03:48 1.1 °C -1.3 °C 1013.4 hPa WNW 9.7 km/h 12.9 km/h 84 % 0 mm 0 W/m2
03:51 1 °C -1.4 °C 1013.4 hPa WNW 9.7 km/h 16.1 km/h 84 % 0 mm 0 W/m2
03:53 1 °C -1.4 °C 1013.4 hPa WNW 8 km/h 14.5 km/h 84 % 0 mm 0 W/m2
03:56 0.9 °C -1.5 °C 1013.4 hPa WNW 9.7 km/h 16.1 km/h 84 % 0 mm 0 W/m2
04:01 0.9 °C -1.5 °C 1013.4 hPa WNW 11.3 km/h 19.3 km/h 84 % 0 mm 0 W/m2
04:05 0.9 °C -1.5 °C 1013.8 hPa WNW 11.3 km/h 17.7 km/h 84 % 0 mm 0 W/m2
04:12 0.9 °C -1.5 °C 1013.8 hPa WNW 11.3 km/h 16.1 km/h 84 % 0 mm 0 W/m2
04:17 0.8 °C -1.6 °C 1013.8 hPa WNW 12.9 km/h 19.3 km/h 84 % 0 mm 0 W/m2
04:18 0.8 °C -1.6 °C 1013.8 hPa WNW 12.9 km/h 17.7 km/h 84 % 0 mm 0 W/m2
04:23 0.8 °C -1.6 °C 1013.8 hPa WNW 9.7 km/h 16.1 km/h 84 % 0 mm 0 W/m2
04:25 0.8 °C -1.6 °C 1013.8 hPa WNW 9.7 km/h 17.7 km/h 84 % 0 mm 0 W/m2
04:30 0.7 °C -1.7 °C 1014.1 hPa WNW 11.3 km/h 17.7 km/h 84 % 0 mm 0 W/m2
04:34 0.7 °C -1.6 °C 1014.1 hPa WNW 11.3 km/h 17.7 km/h 85 % 0 mm 0 W/m2
04:39 0.6 °C -1.6 °C 1014.1 hPa WNW 11.3 km/h 14.5 km/h 85 % 0 mm 0 W/m2
04:44 0.5 °C -1.7 °C 1014.1 hPa WNW 9.7 km/h 12.9 km/h 85 % 0 mm 0 W/m2
04:46 0.5 °C -1.7 °C 1014.1 hPa WNW 8 km/h 14.5 km/h 85 % 0 mm 0 W/m2
04:48 0.5 °C -1.7 °C 1014.1 hPa WNW 9.7 km/h 16.1 km/h 85 % 0 mm 0 W/m2
04:53 0.4 °C -1.8 °C 1014.4 hPa WNW 9.7 km/h 12.9 km/h 85 % 0 mm 0 W/m2
04:55 0.4 °C -1.8 °C 1014.4 hPa WNW 8 km/h 12.9 km/h 85 % 0 mm 0 W/m2
04:56 0.4 °C -1.8 °C 1014.1 hPa WNW 8 km/h 11.3 km/h 85 % 0 mm 0 W/m2
05:00 0.4 °C -1.8 °C 1014.4 hPa WNW 9.7 km/h 17.7 km/h 85 % 0 mm 0 W/m2
05:05 0.4 °C -1.8 °C 1014.4 hPa WNW 8 km/h 12.9 km/h 85 % 0 mm 0 W/m2
05:06 0.3 °C -1.9 °C 1014.4 hPa WNW 8 km/h 12.9 km/h 85 % 0 mm 0 W/m2
05:11 0.3 °C -1.9 °C 1014.4 hPa WNW 8 km/h 9.7 km/h 85 % 0 mm 0 W/m2
05:15 0.2 °C -2 °C 1014.4 hPa WNW 8 km/h 11.3 km/h 85 % 0 mm 0 W/m2
05:20 0.2 °C -1.9 °C 1014.4 hPa WNW 8 km/h 11.3 km/h 86 % 0 mm 0 W/m2
05:25 0.1 °C -1.9 °C 1014.4 hPa WNW 6.4 km/h 11.3 km/h 86 % 0 mm 0 W/m2
05:26 0.1 °C -1.9 °C 1014.4 hPa WNW 6.4 km/h 9.7 km/h 86 % 0 mm 0 W/m2
05:29 0.1 °C -1.9 °C 1014.4 hPa WNW 3.2 km/h 11.3 km/h 86 % 0 mm 0 W/m2
05:31 0.1 °C -1.9 °C 1014.4 hPa WNW 6.4 km/h 9.7 km/h 86 % 0 mm 0 W/m2
05:36 0 °C -2.1 °C 1014.4 hPa WNW 4.8 km/h 9.7 km/h 86 % 0 mm 0 W/m2
05:37 0 °C -2.1 °C 1014.4 hPa WNW 4.8 km/h 8 km/h 86 % 0 mm 0 W/m2
05:42 -0.1 °C -2.2 °C 1014.4 hPa WNW 6.4 km/h 12.9 km/h 86 % 0 mm 0 W/m2
05:47 -0.1 °C -2.2 °C 1014.4 hPa WNW 4.8 km/h 8 km/h 86 % 0 mm 0 W/m2
05:48 -0.1 °C -2.2 °C 1014.4 hPa WNW 4.8 km/h 8 km/h 86 % 0 mm 0 W/m2
05:50 -0.1 °C -2.2 °C 1014.4 hPa WNW 4.8 km/h 8 km/h 86 % 0 mm 0 W/m2
05:55 -0.2 °C -2.3 °C 1014.4 hPa WNW 6.4 km/h 9.7 km/h 86 % 0 mm 0 W/m2
05:56 -0.2 °C -2.3 °C 1014.4 hPa WNW 8 km/h 9.7 km/h 86 % 0 mm 0 W/m2
06:01 -0.2 °C -2.1 °C 1014.4 hPa WNW 9.7 km/h 14.5 km/h 87 % 0 mm 0 W/m2
06:02 -0.2 °C -2.1 °C 1014.4 hPa WNW 9.7 km/h 14.5 km/h 87 % 0 mm 0 W/m2
06:07 -0.2 °C -2.1 °C 1014.4 hPa WNW 8 km/h 12.9 km/h 87 % 0 mm 0 W/m2
06:08 -0.2 °C -2.1 °C 1014.8 hPa WNW 6.4 km/h 11.3 km/h 87 % 0 mm 0 W/m2
06:10 -0.2 °C -2.1 °C 1014.4 hPa WNW 6.4 km/h 9.7 km/h 87 % 0 mm 0 W/m2
06:15 -0.2 °C -2.1 °C 1014.8 hPa WNW 9.7 km/h 16.1 km/h 87 % 0 mm 0 W/m2
06:18 -0.1 °C -2 °C 1014.8 hPa WNW 6.4 km/h 11.3 km/h 87 % 0 mm 0 W/m2
06:21 -0.1 °C -2 °C 1014.8 hPa WNW 8 km/h 14.5 km/h 87 % 0 mm 0 W/m2
06:23 -0.1 °C -2.2 °C 1014.8 hPa WNW 9.7 km/h 14.5 km/h 86 % 0 mm 0 W/m2
06:28 0 °C -2.1 °C 1014.8 hPa WNW 9.7 km/h 12.9 km/h 86 % 0 mm 0 W/m2
06:31 0.1 °C -1.9 °C 1014.8 hPa WNW 6.4 km/h 11.3 km/h 86 % 0 mm 0 W/m2
06:36 0.1 °C -1.9 °C 1014.8 hPa WNW 9.7 km/h 12.9 km/h 86 % 0 mm 0 W/m2
06:38 0.1 °C -1.9 °C 1014.8 hPa WNW 8 km/h 11.3 km/h 86 % 0 mm 0 W/m2
06:43 0.1 °C -2.1 °C 1014.8 hPa WNW 9.7 km/h 16.1 km/h 85 % 0 mm 0 W/m2
06:45 0.1 °C -1.9 °C 1014.8 hPa WNW 9.7 km/h 14.5 km/h 86 % 0 mm 0 W/m2
06:50 0.2 °C -2 °C 1014.8 hPa WNW 9.7 km/h 14.5 km/h 85 % 0 mm 0 W/m2
06:51 0.2 °C -2 °C 1014.8 hPa WNW 9.7 km/h 14.5 km/h 85 % 0 mm 0 W/m2
06:53 0.3 °C -1.9 °C 1015.1 hPa WNW 8 km/h 14.5 km/h 85 % 0 mm 0 W/m2
06:57 0.3 °C -1.9 °C 1015.1 hPa WNW 8 km/h 11.3 km/h 85 % 0 mm 0 W/m2
07:02 0.3 °C -2.1 °C 1015.1 hPa WNW 6.4 km/h 11.3 km/h 84 % 0 mm 0 W/m2
07:06 0.2 °C -2.2 °C 1015.1 hPa WNW 3.2 km/h 6.4 km/h 84 % 0 mm 0 W/m2
07:10 0.2 °C -2.2 °C 1015.1 hPa WNW 3.2 km/h 6.4 km/h 84 % 0 mm 0 W/m2
07:12 0.1 °C -2.3 °C 1015.1 hPa WNW 1.6 km/h 3.2 km/h 84 % 0 mm 0 W/m2
07:17 -0.1 °C -2.5 °C 1015.1 hPa WNW 1.6 km/h 3.2 km/h 84 % 0 mm 0 W/m2
07:22 -0.2 °C -2.6 °C 1015.1 hPa WNW 6.4 km/h 11.3 km/h 84 % 0 mm 0 W/m2
07:23 -0.2 °C -2.6 °C 1015.1 hPa WNW 6.4 km/h 11.3 km/h 84 % 0 mm 0 W/m2
07:25 -0.3 °C -2.7 °C 1015.1 hPa WNW 8 km/h 11.3 km/h 84 % 0 mm 0 W/m2
07:31 -0.3 °C -2.5 °C 1015.1 hPa WNW 4.8 km/h 9.7 km/h 85 % 0 mm 0 W/m2
07:32 -0.3 °C -2.5 °C 1015.1 hPa WNW 6.4 km/h 9.7 km/h 85 % 0 mm 0 W/m2
07:36 -0.2 °C -2.3 °C 1015.1 hPa WNW 6.4 km/h 9.7 km/h 86 % 0 mm 0 W/m2
07:41 -0.2 °C -2.4 °C 1015.5 hPa NW 8 km/h 12.9 km/h 85 % 0 mm 0 W/m2
07:46 -0.1 °C -2.3 °C 1015.5 hPa WNW 8 km/h 12.9 km/h 85 % 0 mm 0 W/m2
07:51 0.1 °C -2.1 °C 1015.5 hPa WNW 9.7 km/h 16.1 km/h 85 % 0 mm 0 W/m2
07:52 0.1 °C -2.1 °C 1015.5 hPa WNW 9.7 km/h 16.1 km/h 85 % 0 mm 0 W/m2
07:59 0.2 °C -2 °C 1015.5 hPa WNW 8 km/h 11.3 km/h 85 % 0 mm 0 W/m2
08:01 0.2 °C -2.2 °C 1015.5 hPa WNW 8 km/h 14.5 km/h 84 % 0 mm 0 W/m2
08:06 0.3 °C -2.1 °C 1015.5 hPa WNW 9.7 km/h 14.5 km/h 84 % 0 mm 7 W/m2
08:11 0.4 °C -2 °C 1015.5 hPa WNW 8 km/h 12.9 km/h 84 % 0 mm 11 W/m2
08:13 0.5 °C -1.9 °C 1015.5 hPa WNW 9.7 km/h 12.9 km/h 84 % 0 mm 11 W/m2
08:18 0.6 °C -1.8 °C 1015.5 hPa WNW 6.4 km/h 9.7 km/h 84 % 0 mm 12 W/m2
08:19 0.7 °C -1.7 °C 1015.5 hPa WNW 6.4 km/h 11.3 km/h 84 % 0 mm 12 W/m2
08:20 0.7 °C -1.7 °C 1015.5 hPa WNW 4.8 km/h 11.3 km/h 84 % 0 mm 14 W/m2
08:24 0.8 °C -1.8 °C 1015.5 hPa WNW 6.4 km/h 9.7 km/h 83 % 0 mm 16 W/m2
08:27 0.8 °C -1.8 °C 1015.5 hPa WNW 6.4 km/h 11.3 km/h 83 % 0 mm 16 W/m2
08:32 0.9 °C -1.7 °C 1015.5 hPa WNW 8 km/h 14.5 km/h 83 % 0 mm 18 W/m2
08:34 1 °C -1.6 °C 1015.5 hPa WNW 8 km/h 14.5 km/h 83 % 0 mm 19 W/m2
08:39 1.2 °C -1.4 °C 1015.5 hPa WNW 9.7 km/h 12.9 km/h 83 % 0 mm 30 W/m2
08:42 1.3 °C -1.3 °C 1015.5 hPa WNW 8 km/h 12.9 km/h 83 % 0 mm 30 W/m2
08:45 1.3 °C -1.3 °C 1015.5 hPa WNW 8 km/h 12.9 km/h 83 % 0 mm 33 W/m2
08:48 1.4 °C -1.3 °C 1015.5 hPa WNW 8 km/h 12.9 km/h 82 % 0 mm 37 W/m2
08:53 1.6 °C -1.2 °C 1015.5 hPa WNW 8 km/h 12.9 km/h 82 % 0 mm 28 W/m2
08:55 1.6 °C -1.2 °C 1015.5 hPa WNW 8 km/h 14.5 km/h 82 % 0 mm 25 W/m2
09:00 1.7 °C -1.1 °C 1015.5 hPa WNW 9.7 km/h 12.9 km/h 82 % 0 mm 26 W/m2
09:05 1.9 °C -0.8 °C 1015.5 hPa WNW 9.7 km/h 14.5 km/h 82 % 0 mm 32 W/m2
09:10 2 °C -0.8 °C 1015.5 hPa WNW 11.3 km/h 16.1 km/h 82 % 0 mm 26 W/m2
09:15 2.1 °C -0.8 °C 1015.8 hPa WNW 8 km/h 11.3 km/h 81 % 0 mm 30 W/m2
09:16 2.1 °C -0.8 °C 1015.8 hPa WNW 8 km/h 11.3 km/h 81 % 0 mm 30 W/m2
09:21 2.2 °C -0.6 °C 1015.8 hPa WNW 9.7 km/h 14.5 km/h 82 % 0 mm 33 W/m2
09:24 2.2 °C -0.6 °C 1015.8 hPa WNW 9.7 km/h 12.9 km/h 82 % 0 mm 32 W/m2
09:29 2.2 °C -0.6 °C 1015.8 hPa WNW 8 km/h 12.9 km/h 82 % 0 mm 30 W/m2
09:34 2.2 °C -0.6 °C 1015.8 hPa WNW 9.7 km/h 12.9 km/h 82 % 0 mm 25 W/m2
09:39 2.2 °C -0.4 °C 1015.8 hPa WNW 9.7 km/h 12.9 km/h 83 % 0 mm 25 W/m2
09:40 2.2 °C -0.4 °C 1015.8 hPa WNW 9.7 km/h 12.9 km/h 83 % 0 mm 23 W/m2
09:45 2.2 °C -0.4 °C 1015.8 hPa WNW 9.7 km/h 12.9 km/h 83 % 0 mm 18 W/m2
09:50 2.2 °C -0.4 °C 1016.1 hPa WNW 8 km/h 12.9 km/h 83 % 0 mm 19 W/m2
09:52 2.2 °C -0.4 °C 1016.1 hPa WNW 8 km/h 12.9 km/h 83 % 0 mm 19 W/m2
09:57 2.3 °C -0.3 °C 1016.1 hPa WNW 6.4 km/h 11.3 km/h 83 % 0 mm 26 W/m2
09:59 2.3 °C -0.3 °C 1016.1 hPa WNW 4.8 km/h 9.7 km/h 83 % 0 mm 30 W/m2
10:04 2.3 °C -0.3 °C 1015.8 hPa WNW 6.4 km/h 9.7 km/h 83 % 0 mm 32 W/m2
10:05 2.3 °C -0.3 °C 1015.8 hPa WNW 8 km/h 9.7 km/h 83 % 0 mm 32 W/m2
10:10 2.4 °C -0.2 °C 1015.8 hPa West 8 km/h 12.9 km/h 83 % 0 mm 39 W/m2
10:15 2.6 °C 0 °C 1015.8 hPa WNW 8 km/h 11.3 km/h 83 % 0 mm 69 W/m2
10:16 2.6 °C 0 °C 1015.8 hPa WNW 8 km/h 11.3 km/h 83 % 0 mm 74 W/m2
10:21 2.7 °C 0.3 °C 1016.1 hPa WNW 6.4 km/h 11.3 km/h 84 % 0 mm 79 W/m2
10:22 2.7 °C 0.3 °C 1016.1 hPa WNW 6.4 km/h 11.3 km/h 84 % 0 mm 83 W/m2
10:27 2.8 °C 0.4 °C 1016.1 hPa West 4.8 km/h 9.7 km/h 84 % 0 mm 123 W/m2
10:32 3 °C 0.6 °C 1016.1 hPa WNW 6.4 km/h 11.3 km/h 84 % 0 mm 97 W/m2
10:34 3.1 °C 0.7 °C 1016.1 hPa WNW 4.8 km/h 11.3 km/h 84 % 0 mm 118 W/m2
10:39 3.2 °C 0.8 °C 1016.1 hPa WNW 8 km/h 12.9 km/h 84 % 0 mm 93 W/m2
10:44 3.4 °C 0.9 °C 1016.1 hPa West 6.4 km/h 11.3 km/h 84 % 0 mm 97 W/m2
10:45 3.4 °C 0.9 °C 1016.1 hPa West 6.4 km/h 11.3 km/h 84 % 0 mm 97 W/m2
10:50 3.4 °C 0.8 °C 1016.1 hPa West 8 km/h 12.9 km/h 83 % 0 mm 104 W/m2
10:52 3.5 °C 0.9 °C 1016.1 hPa West 8 km/h 12.9 km/h 83 % 0 mm 97 W/m2
10:55 3.5 °C 1.1 °C 1016.1 hPa West 8 km/h 14.5 km/h 84 % 0 mm 93 W/m2
10:58 3.6 °C 1.2 °C 1016.1 hPa West 8 km/h 14.5 km/h 84 % 0 mm 109 W/m2
11:03 3.7 °C 1.2 °C 1016.1 hPa West 6.4 km/h 11.3 km/h 84 % 0 mm 190 W/m2
11:06 3.8 °C 1.3 °C 1016.5 hPa West 6.4 km/h 12.9 km/h 84 % 0 mm 172 W/m2
11:11 4.1 °C 1.8 °C 1016.5 hPa West 6.4 km/h 16.1 km/h 85 % 0 mm 304 W/m2
11:14 4.3 °C 2 °C 1016.1 hPa West 9.7 km/h 14.5 km/h 85 % 0 mm 320 W/m2
11:20 4.7 °C 2.1 °C 1016.1 hPa West 8 km/h 17.7 km/h 83 % 0 mm 339 W/m2
11:25 5.1 °C 2.4 °C 1016.1 hPa West 8 km/h 14.5 km/h 83 % 0 mm 332 W/m2
11:30 5.3 °C 2.5 °C 1016.1 hPa WNW 11.3 km/h 17.7 km/h 82 % 0 mm 316 W/m2
11:32 5.4 °C 2.6 °C 1016.1 hPa WNW 12.9 km/h 20.9 km/h 82 % 0 mm 320 W/m2
11:38 5.6 °C 2.6 °C 1016.1 hPa WNW 11.3 km/h 17.7 km/h 81 % 0 mm 318 W/m2
11:43 5.8 °C 2.6 °C 1016.1 hPa West 4.8 km/h 14.5 km/h 80 % 0 mm 345 W/m2
11:44 5.8 °C 2.6 °C 1016.1 hPa West 6.4 km/h 17.7 km/h 80 % 0 mm 346 W/m2
11:46 5.9 °C 2.7 °C 1016.1 hPa WNW 11.3 km/h 17.7 km/h 80 % 0 mm 329 W/m2
11:51 5.9 °C 2.6 °C 1016.1 hPa West 11.3 km/h 19.3 km/h 79 % 0 mm 118 W/m2
11:53 5.8 °C 2.3 °C 1016.1 hPa WNW 14.5 km/h 29 km/h 78 % 0 mm 97 W/m2
11:58 5.6 °C 2.2 °C 1016.1 hPa West 8 km/h 11.3 km/h 79 % 0 mm 258 W/m2
12:00 5.5 °C 2.2 °C 1016.1 hPa West 9.7 km/h 17.7 km/h 79 % 0 mm 251 W/m2
12:05 5.6 °C 2.4 °C 1016.1 hPa WNW 12.9 km/h 24.1 km/h 80 % 0 mm 248 W/m2
12:10 5.6 °C 2.4 °C 1016.1 hPa West 12.9 km/h 20.9 km/h 80 % 0 mm 230 W/m2
12:11 5.6 °C 2.4 °C 1016.1 hPa West 12.9 km/h 20.9 km/h 80 % 0 mm 251 W/m2
12:16 5.4 °C 2.2 °C 1016.1 hPa West 11.3 km/h 16.1 km/h 80 % 0 mm 262 W/m2
12:18 5.4 °C 2.2 °C 1016.1 hPa West 11.3 km/h 17.7 km/h 80 % 0 mm 258 W/m2
12:23 5.4 °C 2.2 °C 1016.1 hPa West 4.8 km/h 11.3 km/h 80 % 0 mm 158 W/m2
12:28 5.4 °C 2.2 °C 1016.1 hPa West 6.4 km/h 11.3 km/h 80 % 0 mm 56 W/m2
12:32 5.2 °C 2.1 °C 1016.1 hPa West 6.4 km/h 11.3 km/h 80 % 0 mm 204 W/m2
12:36 5.2 °C 2.2 °C 1016.1 hPa West 4.8 km/h 11.3 km/h 81 % 0 mm 58 W/m2
12:37 5.1 °C 1.9 °C 1016.1 hPa West 3.2 km/h 8 km/h 80 % 0 mm 46 W/m2
12:42 4.9 °C 1.9 °C 1016.1 hPa West 4.8 km/h 9.7 km/h 81 % 0 mm 49 W/m2
12:44 4.9 °C 1.9 °C 1016.1 hPa West 8 km/h 14.5 km/h 81 % 0 mm 125 W/m2
12:49 4.8 °C 2 °C 1016.1 hPa WNW 4.8 km/h 12.9 km/h 82 % 0 mm 141 W/m2
12:51 4.9 °C 2.1 °C 1016.1 hPa WNW 6.4 km/h 12.9 km/h 82 % 0 mm 178 W/m2
12:55 4.9 °C 2.1 °C 1016.1 hPa WNW 9.7 km/h 16.1 km/h 82 % 0 mm 83 W/m2
12:57 4.9 °C 2.1 °C 1016.5 hPa WNW 11.3 km/h 16.1 km/h 82 % 0 mm 120 W/m2
13:00 4.9 °C 2.1 °C 1016.5 hPa WNW 11.3 km/h 16.1 km/h 82 % 0 mm 109 W/m2
13:05 4.8 °C 2 °C 1016.8 hPa WNW 9.7 km/h 12.9 km/h 82 % 0 mm 130 W/m2
13:08 4.8 °C 2 °C 1016.8 hPa WNW 8 km/h 16.1 km/h 82 % 0 mm 134 W/m2
13:11 4.8 °C 2.2 °C 1016.8 hPa WNW 9.7 km/h 12.9 km/h 83 % 0 mm 137 W/m2
13:15 4.8 °C 2.2 °C 1016.8 hPa WNW 6.4 km/h 16.1 km/h 83 % 0 mm 139 W/m2
13:17 4.9 °C 2.3 °C 1016.8 hPa WNW 8 km/h 16.1 km/h 83 % 0 mm 163 W/m2
13:22 4.9 °C 2.3 °C 1016.8 hPa WNW 11.3 km/h 12.9 km/h 83 % 0 mm 130 W/m2
13:27 4.9 °C 2.3 °C 1016.8 hPa NW 8 km/h 16.1 km/h 83 % 0 mm 135 W/m2
13:28 4.9 °C 2.3 °C 1016.8 hPa NW 8 km/h 12.9 km/h 83 % 0 mm 165 W/m2
13:30 5 °C 2.3 °C 1016.8 hPa NNW 6.4 km/h 11.3 km/h 83 % 0 mm 123 W/m2
13:35 5 °C 2.3 °C 1016.8 hPa Calm   8 km/h 83 % 0 mm 88 W/m2
13:36 5 °C 2.3 °C 1016.8 hPa North 4.8 km/h 9.7 km/h 83 % 0 mm 95 W/m2
13:42 5 °C 2.3 °C 1016.8 hPa NNW 1.6 km/h 8 km/h 83 % 0 mm 98 W/m2
13:47 4.9 °C 2.3 °C 1016.8 hPa WNW 1.6 km/h 9.7 km/h 83 % 0 mm 98 W/m2
13:51 4.9 °C 2.3 °C 1016.8 hPa NW 3.2 km/h 11.3 km/h 83 % 0 mm 95 W/m2
13:56 4.8 °C 2.2 °C 1016.8 hPa NW 1.6 km/h 8 km/h 83 % 0 mm 107 W/m2
14:00 4.8 °C 2.2 °C 1017.2 hPa Calm   3.2 km/h 83 % 0 mm 105 W/m2
14:02 4.8 °C 2.2 °C 1017.2 hPa North 3.2 km/h 9.7 km/h 83 % 0 mm 97 W/m2
14:08 4.8 °C 2.3 °C 1017.2 hPa Calm   3.2 km/h 84 % 0 mm 63 W/m2
14:13 4.8 °C 2.3 °C 1017.2 hPa Calm   1.6 km/h 84 % 0 mm 39 W/m2
14:15 4.8 °C 2.3 °C 1017.2 hPa Calm     84 % 0 mm 33 W/m2
14:17 4.8 °C 2.3 °C 1017.2 hPa Calm     84 % 0 mm 33 W/m2
14:22 4.7 °C 2.1 °C 1017.2 hPa North 3.2 km/h 9.7 km/h 83 % 0 mm 33 W/m2
14:23 4.7 °C 2.1 °C 1017.5 hPa NNW 1.6 km/h 9.7 km/h 83 % 0 mm 32 W/m2
14:24 4.7 °C 2.2 °C 1017.5 hPa NNW 1.6 km/h 8 km/h 84 % 0 mm 30 W/m2
14:28 4.6 °C 2.1 °C 1017.5 hPa NNW 1.6 km/h 8 km/h 84 % 0 mm 25 W/m2
14:33 4.6 °C 2.1 °C 1017.5 hPa NNW 3.2 km/h 9.7 km/h 84 % 0 mm 23 W/m2
14:34 4.6 °C 2.1 °C 1017.5 hPa North 3.2 km/h 9.7 km/h 84 % 0 mm 23 W/m2
14:39 4.4 °C 1.9 °C 1017.5 hPa NW 6.4 km/h 12.9 km/h 84 % 0 mm 25 W/m2
14:41 4.4 °C 1.9 °C 1017.5 hPa NW 6.4 km/h 12.9 km/h 84 % 0 mm 23 W/m2
14:44 4.3 °C 1.8 °C 1017.5 hPa NW 8 km/h 14.5 km/h 84 % 0 mm 23 W/m2
14:49 4.2 °C 1.9 °C 1017.8 hPa NNW 6.4 km/h 16.1 km/h 85 % 0 mm 21 W/m2
14:51 4.2 °C 1.9 °C 1017.8 hPa NNW 4.8 km/h 12.9 km/h 85 % 0 mm 21 W/m2
14:56 4.1 °C 1.8 °C 1017.8 hPa NW 4.8 km/h 14.5 km/h 85 % 0 mm 21 W/m2
14:58 4.1 °C 1.8 °C 1017.5 hPa NW 8 km/h 14.5 km/h 85 % 0 mm 19 W/m2
15:03 4 °C 1.7 °C 1017.8 hPa NW 6.4 km/h 12.9 km/h 85 % 0 mm 18 W/m2
15:08 3.9 °C 1.8 °C 1017.5 hPa WNW 8 km/h 12.9 km/h 86 % 0 mm 16 W/m2
15:09 3.9 °C 1.8 °C 1017.5 hPa WNW 8 km/h 12.9 km/h 86 % 0 mm 16 W/m2
15:14 3.8 °C 1.7 °C 1017.5 hPa NW 4.8 km/h 11.3 km/h 86 % 0 mm 18 W/m2
15:19 3.7 °C 1.6 °C 1017.8 hPa WNW 3.2 km/h 9.7 km/h 86 % 0 mm 19 W/m2
15:22 3.7 °C 1.6 °C 1017.8 hPa NW 4.8 km/h 11.3 km/h 86 % 0 mm 16 W/m2
15:32 3.6 °C 1.6 °C 1017.8 hPa WNW 6.4 km/h 11.3 km/h 87 % 0 mm 5 W/m2
15:35 3.6 °C 1.6 °C 1017.8 hPa WNW 8 km/h 12.9 km/h 87 % 0 mm 0 W/m2
15:40 3.5 °C 1.6 °C 1018.2 hPa NW 8 km/h 14.5 km/h 87 % 0 mm 0 W/m2
15:41 3.4 °C 1.4 °C 1018.2 hPa NW 8 km/h 14.5 km/h 87 % 0 mm 0 W/m2
15:44 3.4 °C 1.6 °C 1018.2 hPa NW 6.4 km/h 16.1 km/h 88 % 0 mm 0 W/m2
15:50 3.4 °C 1.6 °C 1017.8 hPa WNW 8 km/h 16.1 km/h 88 % 0 mm 0 W/m2
15:51 3.3 °C 1.5 °C 1018.2 hPa WNW 8 km/h 14.5 km/h 88 % 0 mm 0 W/m2
15:53 3.3 °C 1.5 °C 1018.2 hPa NW 8 km/h 14.5 km/h 88 % 0 mm 0 W/m2
15:58 3.3 °C 1.5 °C 1018.2 hPa NW 8 km/h 14.5 km/h 88 % 0 mm 0 W/m2
16:00 3.2 °C 1.4 °C 1018.5 hPa NW 8 km/h 17.7 km/h 88 % 0 mm 0 W/m2
16:05 3.2 °C 1.4 °C 1018.5 hPa WNW 6.4 km/h 12.9 km/h 88 % 0 mm 0 W/m2
16:11 3.1 °C 1.3 °C 1018.5 hPa NW 6.4 km/h 12.9 km/h 88 % 0 mm 0 W/m2
16:16 2.9 °C 1.3 °C 1018.8 hPa WNW 6.4 km/h 9.7 km/h 89 % 0 mm 0 W/m2
16:17 2.9 °C 1.3 °C 1018.8 hPa WNW 6.4 km/h 11.3 km/h 89 % 0 mm 0 W/m2
16:22 2.8 °C 1.2 °C 1018.8 hPa NW 8 km/h 14.5 km/h 89 % 0 mm 0 W/m2
16:23 2.8 °C 1.2 °C 1018.8 hPa NW 4.8 km/h 11.3 km/h 89 % 0 mm 0 W/m2
16:28 2.7 °C 1.1 °C 1018.8 hPa WNW 6.4 km/h 11.3 km/h 89 % 0 mm 0 W/m2
16:30 2.7 °C 1.1 °C 1018.8 hPa NW 4.8 km/h 11.3 km/h 89 % 0 mm 0 W/m2
16:33 2.6 °C 0.9 °C 1018.8 hPa NW 6.4 km/h 11.3 km/h 89 % 0 mm 0 W/m2
16:38 2.5 °C 1 °C 1018.8 hPa WNW 8 km/h 12.9 km/h 90 % 0 mm 0 W/m2
16:40 2.5 °C 1 °C 1018.8 hPa WNW 6.4 km/h 12.9 km/h 90 % 0 mm 0 W/m2
16:45 2.4 °C 0.9 °C 1018.8 hPa WNW 6.4 km/h 11.3 km/h 90 % 0 mm 0 W/m2
16:49 2.3 °C 0.8 °C 1018.8 hPa WNW 8 km/h 12.9 km/h 90 % 0 mm 0 W/m2
16:56 2.2 °C 0.7 °C 1018.8 hPa WNW 8 km/h 14.5 km/h 90 % 0 mm 0 W/m2
16:57 2.2 °C 0.7 °C 1018.8 hPa WNW 8 km/h 14.5 km/h 90 % 0 mm 0 W/m2
17:02 2.2 °C 0.9 °C 1019.2 hPa WNW 8 km/h 12.9 km/h 91 % 0 mm 0 W/m2
17:05 2.2 °C 0.9 °C 1019.2 hPa WNW 8 km/h 12.9 km/h 91 % 0 mm 0 W/m2
17:10 2.1 °C 0.8 °C 1019.2 hPa WNW 8 km/h 14.5 km/h 91 % 0 mm 0 W/m2
17:13 2.1 °C 0.8 °C 1019.2 hPa WNW 8 km/h 12.9 km/h 91 % 0 mm 0 W/m2
17:18 2 °C 0.7 °C 1019.2 hPa NW 8 km/h 11.3 km/h 91 % 0 mm 0 W/m2
17:20 1.9 °C 0.6 °C 1019.2 hPa NW 8 km/h 12.9 km/h 91 % 0 mm 0 W/m2
17:23 1.9 °C 0.6 °C 1019.2 hPa NW 4.8 km/h 9.7 km/h 91 % 0 mm 0 W/m2
17:26 1.9 °C 0.6 °C 1019.2 hPa WNW 6.4 km/h 9.7 km/h 91 % 0 mm 0 W/m2
17:31 1.9 °C 0.6 °C 1019.2 hPa NW 6.4 km/h 11.3 km/h 91 % 0 mm 0 W/m2
17:32 1.9 °C 0.7 °C 1019.2 hPa WNW 6.4 km/h 11.3 km/h 92 % 0 mm 0 W/m2
17:37 1.8 °C 0.6 °C 1019.2 hPa WNW 9.7 km/h 12.9 km/h 92 % 0 mm 0 W/m2
17:39 1.8 °C 0.6 °C 1019.2 hPa WNW 9.7 km/h 12.9 km/h 92 % 0 mm 0 W/m2
17:41 1.8 °C 0.6 °C 1019.5 hPa WNW 9.7 km/h 14.5 km/h 92 % 0 mm 0 W/m2
17:45 1.8 °C 0.6 °C 1019.5 hPa WNW 8 km/h 11.3 km/h 92 % 0 mm 0 W/m2
17:50 1.7 °C 0.6 °C 1019.5 hPa WNW 6.4 km/h 9.7 km/h 92 % 0 mm 0 W/m2
17:51 1.7 °C 0.6 °C 1019.5 hPa WNW 6.4 km/h 9.7 km/h 92 % 0 mm 0 W/m2
17:53 1.6 °C 0.4 °C 1019.5 hPa WNW 6.4 km/h 9.7 km/h 92 % 0 mm 0 W/m2
17:58 1.6 °C 0.4 °C 1019.5 hPa WNW 6.4 km/h 11.3 km/h 92 % 0 mm 0 W/m2
18:03 1.5 °C 0.3 °C 1019.5 hPa WNW 4.8 km/h 9.7 km/h 92 % 0 mm 0 W/m2
18:08 1.4 °C 0.2 °C 1019.9 hPa WNW 6.4 km/h 9.7 km/h 92 % 0 mm 0 W/m2
18:10 1.4 °C 0.2 °C 1019.9 hPa WNW 6.4 km/h 9.7 km/h 92 % 0 mm 0 W/m2
18:15 1.4 °C 0.2 °C 1019.9 hPa WNW 4.8 km/h 9.7 km/h 92 % 0 mm 0 W/m2
18:16 1.4 °C 0.2 °C 1019.9 hPa WNW 4.8 km/h 9.7 km/h 92 % 0 mm 0 W/m2
18:21 1.3 °C 0.2 °C 1019.9 hPa WNW 4.8 km/h 8 km/h 92 % 0 mm 0 W/m2
18:24 1.3 °C 0.3 °C 1019.9 hPa WNW 4.8 km/h 8 km/h 93 % 0 mm 0 W/m2
18:26 1.3 °C 0.3 °C 1019.9 hPa WNW 4.8 km/h 9.7 km/h 93 % 0 mm 0 W/m2
18:30 1.3 °C 0.3 °C 1020.2 hPa WNW 4.8 km/h 9.7 km/h 93 % 0 mm 0 W/m2
18:31 1.2 °C 0.2 °C 1020.2 hPa WNW 3.2 km/h 9.7 km/h 93 % 0 mm 0 W/m2
18:35 1.2 °C 0.1 °C 1019.9 hPa NW 3.2 km/h 8 km/h 92 % 0 mm 0 W/m2
18:40 1.1 °C 0.1 °C 1019.9 hPa WNW 6.4 km/h 9.7 km/h 93 % 0 mm 0 W/m2
18:43 1.1 °C 0.1 °C 1020.2 hPa WNW 8 km/h 11.3 km/h 93 % 0 mm 0 W/m2
18:48 1 °C 0 °C 1020.2 hPa WNW 6.4 km/h 9.7 km/h 93 % 0 mm 0 W/m2
18:51 1 °C 0 °C 1020.2 hPa WNW 4.8 km/h 9.7 km/h 93 % 0 mm 0 W/m2
18:57 0.9 °C -0.1 °C 1020.2 hPa WNW 8 km/h 11.3 km/h 93 % 0 mm 0 W/m2
18:58 0.9 °C -0.1 °C 1020.2 hPa WNW 6.4 km/h 9.7 km/h 93 % 0 mm 0 W/m2
18:59 0.9 °C -0.1 °C 1020.2 hPa WNW 6.4 km/h 11.3 km/h 93 % 0 mm 0 W/m2
19:04 0.9 °C -0.1 °C 1020.2 hPa WNW 4.8 km/h 9.7 km/h 93 % 0 mm 0 W/m2
19:07 0.9 °C -0.1 °C 1020.2 hPa WNW 4.8 km/h 9.7 km/h 93 % 0 mm 0 W/m2
19:09 0.9 °C -0.1 °C 1020.2 hPa WNW 4.8 km/h 11.3 km/h 93 % 0 mm 0 W/m2
19:14 0.9 °C -0.1 °C 1020.5 hPa NW 6.4 km/h 11.3 km/h 93 % 0 mm 0 W/m2
19:19 1 °C 0 °C 1020.5 hPa WNW 6.4 km/h 12.9 km/h 93 % 0 mm 0 W/m2
19:20 1.1 °C 0.1 °C 1020.5 hPa WNW 6.4 km/h 9.7 km/h 93 % 0 mm 0 W/m2
19:21 1.1 °C 0.1 °C 1020.5 hPa WNW 4.8 km/h 9.7 km/h 93 % 0 mm 0 W/m2
19:26 1.1 °C 0.1 °C 1020.5 hPa NW 4.8 km/h 9.7 km/h 93 % 0 mm 0 W/m2
19:28 1.1 °C 0.1 °C 1020.5 hPa WNW 3.2 km/h 9.7 km/h 93 % 0 mm 0 W/m2
19:33 1 °C 0 °C 1020.5 hPa WNW 4.8 km/h 9.7 km/h 93 % 0 mm 0 W/m2
19:34 1 °C 0 °C 1020.5 hPa WNW 6.4 km/h 9.7 km/h 93 % 0 mm 0 W/m2
19:35 0.9 °C -0.1 °C 1020.5 hPa WNW 4.8 km/h 9.7 km/h 93 % 0 mm 0 W/m2
19:40 0.9 °C -0.1 °C 1020.9 hPa WNW 4.8 km/h 11.3 km/h 93 % 0 mm 0 W/m2
19:43 0.9 °C -0.1 °C 1020.9 hPa WNW 6.4 km/h 11.3 km/h 93 % 0 mm 0 W/m2
19:46 0.9 °C -0.1 °C 1020.9 hPa WNW 4.8 km/h 9.7 km/h 93 % 0 mm 0 W/m2
19:48 0.9 °C -0.1 °C 1020.9 hPa WNW 3.2 km/h 8 km/h 93 % 0 mm 0 W/m2
19:53 0.8 °C -0.2 °C 1020.9 hPa WNW 1.6 km/h 8 km/h 93 % 0 mm 0 W/m2
19:54 0.8 °C -0.2 °C 1020.9 hPa WNW 1.6 km/h 8 km/h 93 % 0 mm 0 W/m2
19:55 0.8 °C -0.2 °C 1020.9 hPa WNW 1.6 km/h 8 km/h 93 % 0 mm 0 W/m2
20:00 0.7 °C -0.4 °C 1020.9 hPa Calm     92 % 0 mm 0 W/m2
20:02 0.5 °C -0.7 °C 1020.9 hPa Calm     92 % 0 mm 0 W/m2
20:07 0.3 °C -0.8 °C 1021.2 hPa Calm   1.6 km/h 92 % 0 mm 0 W/m2
20:11 0.1 °C -1.2 °C 1021.2 hPa WNW 3.2 km/h 6.4 km/h 91 % 0 mm 0 W/m2
20:15 -0.1 °C -1.4 °C 1021.2 hPa WNW 4.8 km/h 6.4 km/h 91 % 0 mm 0 W/m2
20:17 -0.2 °C -1.3 °C 1021.2 hPa WNW 3.2 km/h 8 km/h 92 % 0 mm 0 W/m2
20:22 -0.3 °C -1.4 °C 1021.2 hPa WNW 3.2 km/h 8 km/h 92 % 0 mm 0 W/m2
20:24 -0.3 °C -1.4 °C 1021.6 hPa WNW 3.2 km/h 8 km/h 92 % 0 mm 0 W/m2
20:25 -0.3 °C -1.4 °C 1021.6 hPa WNW 1.6 km/h 6.4 km/h 92 % 0 mm 0 W/m2
20:29 -0.4 °C -1.4 °C 1021.6 hPa Calm   3.2 km/h 93 % 0 mm 0 W/m2
20:31 -0.4 °C -1.4 °C 1021.6 hPa Calm   1.6 km/h 93 % 0 mm 0 W/m2
20:36 -0.4 °C -1.4 °C 1021.6 hPa Calm   6.4 km/h 93 % 0 mm 0 W/m2
20:41 -0.4 °C -1.4 °C 1021.6 hPa NW 4.8 km/h 9.7 km/h 93 % 0 mm 0 W/m2
20:44 -0.3 °C -1.2 °C 1021.6 hPa WNW 6.4 km/h 12.9 km/h 94 % 0 mm 0 W/m2
20:46 -0.2 °C -1.1 °C 1021.6 hPa WNW 6.4 km/h 11.3 km/h 94 % 0 mm 0 W/m2
20:52 0.1 °C -0.8 °C 1021.6 hPa WNW 4.8 km/h 9.7 km/h 94 % 0 mm 0 W/m2
20:57 0.1 °C -0.8 °C 1021.6 hPa WNW 1.6 km/h 6.4 km/h 94 % 0 mm 0 W/m2
20:58 0.1 °C -0.9 °C 1021.6 hPa WNW 1.6 km/h 6.4 km/h 93 % 0 mm 0 W/m2
21:03 -0.1 °C -1.1 °C 1021.6 hPa Calm     93 % 0 mm 0 W/m2
21:04 -0.1 °C -1.1 °C 1021.9 hPa Calm     93 % 0 mm 0 W/m2
21:09 -0.2 °C -1.2 °C 1021.9 hPa Calm   1.6 km/h 93 % 0 mm 0 W/m2
21:12 -0.3 °C -1.3 °C 1021.9 hPa Calm     93 % 0 mm 0 W/m2
21:17 -0.5 °C -1.7 °C 1021.9 hPa Calm     92 % 0 mm 0 W/m2
21:18 -0.5 °C -1.7 °C 1021.9 hPa Calm     92 % 0 mm 0 W/m2
21:23 -0.7 °C -1.8 °C 1021.9 hPa Calm     92 % 0 mm 0 W/m2
21:24 -0.7 °C -1.8 °C 1021.9 hPa Calm     92 % 0 mm 0 W/m2
21:29 -0.9 °C -2.1 °C 1021.9 hPa Calm     92 % 0 mm 0 W/m2
21:32 -1 °C -2.1 °C 1021.9 hPa Calm     92 % 0 mm 0 W/m2
21:36 -1.1 °C -2.2 °C 1021.9 hPa Calm   3.2 km/h 92 % 0 mm 0 W/m2
21:41 -1.2 °C -2.2 °C 1021.9 hPa WNW 4.8 km/h 8 km/h 93 % 0 mm 0 W/m2
21:42 -1.2 °C -2.2 °C 1021.9 hPa WNW 4.8 km/h 8 km/h 93 % 0 mm 0 W/m2
21:47 -1.2 °C -2.2 °C 1021.9 hPa WNW 4.8 km/h 8 km/h 93 % 0 mm 0 W/m2
21:48 -1.2 °C -2.2 °C 1021.9 hPa WNW 4.8 km/h 8 km/h 93 % 0 mm 0 W/m2
21:53 -1.1 °C -1.9 °C 1021.9 hPa WNW 3.2 km/h 8 km/h 94 % 0 mm 0 W/m2
21:55 -1.1 °C -1.9 °C 1021.9 hPa WNW 1.6 km/h 6.4 km/h 94 % 0 mm 0 W/m2
21:58 -1.1 °C -1.9 °C 1021.9 hPa Calm   1.6 km/h 94 % 0 mm 0 W/m2
22:03 -1.1 °C -2.1 °C 1021.9 hPa Calm     93 % 0 mm 0 W/m2
22:08 -1.3 °C -2.3 °C 1021.9 hPa Calm     93 % 0 mm 0 W/m2
22:09 -1.4 °C -2.4 °C 1021.9 hPa Calm     93 % 0 mm 0 W/m2
22:13 -1.5 °C -2.5 °C 1022.2 hPa Calm     93 % 0 mm 0 W/m2
22:14 -1.6 °C -2.6 °C 1022.2 hPa Calm     93 % 0 mm 0 W/m2
22:19 -1.7 °C -2.7 °C 1022.2 hPa Calm     93 % 0 mm 0 W/m2
22:20 -1.7 °C -2.7 °C 1022.2 hPa Calm     93 % 0 mm 0 W/m2
22:25 -1.7 °C -2.6 °C 1022.2 hPa Calm     94 % 0 mm 0 W/m2
22:26 -1.7 °C -2.7 °C 1021.9 hPa Calm     93 % 0 mm 0 W/m2
22:27 -1.7 °C -2.6 °C 1022.2 hPa Calm     94 % 0 mm 0 W/m2
22:31 -1.6 °C -2.4 °C 1022.2 hPa Calm     94 % 0 mm 0 W/m2
22:36 -1.6 °C -2.4 °C 1022.2 hPa Calm     94 % 0 mm 0 W/m2
22:42 -1.7 °C -2.6 °C 1022.2 hPa Calm     94 % 0 mm 0 W/m2
22:45 -1.8 °C -2.8 °C 1022.2 hPa Calm     93 % 0 mm 0 W/m2
22:50 -1.8 °C -2.6 °C 1022.2 hPa Calm     94 % 0 mm 0 W/m2
22:54 -1.9 °C -2.7 °C 1022.2 hPa Calm     94 % 0 mm 0 W/m2
22:59 -2 °C -3 °C 1022.2 hPa Calm     93 % 0 mm 0 W/m2
23:00 -2 °C -3 °C 1022.2 hPa Calm     93 % 0 mm 0 W/m2
23:05 -2.1 °C -3.1 °C 1022.2 hPa Calm     93 % 0 mm 0 W/m2
23:10 -2 °C -2.8 °C 1022.2 hPa NW 3.2 km/h 6.4 km/h 94 % 0 mm 0 W/m2
23:15 -1.7 °C -2.4 °C 1022.6 hPa NNW 3.2 km/h 6.4 km/h 95 % 0 mm 0 W/m2
23:20 -1.5 °C -2.2 °C 1022.6 hPa Calm     95 % 0 mm 0 W/m2
23:25 -1.6 °C -2.3 °C 1022.6 hPa Calm     95 % 0 mm 0 W/m2
23:31 -1.7 °C -2.6 °C 1022.6 hPa Calm     94 % 0 mm 0 W/m2
23:32 -1.8 °C -2.6 °C 1022.6 hPa Calm     94 % 0 mm 0 W/m2
23:38 -1.9 °C -2.7 °C 1022.2 hPa Calm     94 % 0 mm 0 W/m2
23:39 -2 °C -2.8 °C 1022.2 hPa WNW 1.6 km/h 6.4 km/h 94 % 0 mm 0 W/m2
23:44 -2.2 °C -3.1 °C 1022.2 hPa WNW 1.6 km/h 3.2 km/h 94 % 0 mm 0 W/m2
23:45 -2.2 °C -3.1 °C 1022.6 hPa Calm   3.2 km/h 94 % 0 mm 0 W/m2
23:50 -2.2 °C -3.1 °C 1022.2 hPa Calm   1.6 km/h 94 % 0 mm 0 W/m2
23:51 -2.2 °C -3.1 °C 1022.2 hPa Calm   3.2 km/h 94 % 0 mm 0 W/m2
23:56 -2.3 °C -3.1 °C 1022.6 hPa WNW 1.6 km/h 3.2 km/h 94 % 0 mm 0 W/m2
23:57 -2.3 °C -3.1 °C 1022.6 hPa WNW 1.6 km/h 3.2 km/h 94 % 0 mm 0 W/m2
Delerius-Weather
Compliments of Weather Underground - 3 mb

Data updates at regular intervals.